sensor_id;sensor_type;location;lat;lon;timestamp;pressure;altitude;pressure_sealevel;temperature;humidity
10948;BME280;5526;42.070;24.752;2024-01-30T00:00:30;101128.56;;;3.45;62.30
10948;BME280;5526;42.070;24.752;2024-01-30T00:02:57;101135.22;;;3.40;62.66
10948;BME280;5526;42.070;24.752;2024-01-30T00:05:25;101136.00;;;3.40;62.38
10948;BME280;5526;42.070;24.752;2024-01-30T00:07:52;101133.75;;;3.37;62.84
10948;BME280;5526;42.070;24.752;2024-01-30T00:10:20;101135.81;;;3.34;62.87
10948;BME280;5526;42.070;24.752;2024-01-30T00:12:47;101131.44;;;3.34;63.08
10948;BME280;5526;42.070;24.752;2024-01-30T00:15:15;101135.22;;;3.40;63.16
10948;BME280;5526;42.070;24.752;2024-01-30T00:17:42;101133.63;;;3.47;62.59
10948;BME280;5526;42.070;24.752;2024-01-30T00:20:10;101131.66;;;3.49;62.46
10948;BME280;5526;42.070;24.752;2024-01-30T00:22:37;101130.88;;;3.48;62.59
10948;BME280;5526;42.070;24.752;2024-01-30T00:25:04;101130.19;;;3.46;62.93
10948;BME280;5526;42.070;24.752;2024-01-30T00:27:33;101139.78;;;3.46;62.78
10948;BME280;5526;42.070;24.752;2024-01-30T00:30:00;101144.69;;;3.49;62.81
10948;BME280;5526;42.070;24.752;2024-01-30T00:32:27;101141.94;;;3.50;62.82
10948;BME280;5526;42.070;24.752;2024-01-30T00:34:54;101137.84;;;3.48;62.74
10948;BME280;5526;42.070;24.752;2024-01-30T00:37:21;101126.44;;;3.41;62.91
10948;BME280;5526;42.070;24.752;2024-01-30T00:39:49;101137.84;;;3.48;63.02
10948;BME280;5526;42.070;24.752;2024-01-30T00:42:16;101143.38;;;3.45;63.48
10948;BME280;5526;42.070;24.752;2024-01-30T00:44:44;101140.91;;;3.43;63.69
10948;BME280;5526;42.070;24.752;2024-01-30T00:47:11;101140.13;;;3.43;63.58
10948;BME280;5526;42.070;24.752;2024-01-30T00:49:38;101124.91;;;3.30;63.84
10948;BME280;5526;42.070;24.752;2024-01-30T00:52:06;101131.44;;;3.34;63.72
10948;BME280;5526;42.070;24.752;2024-01-30T00:54:33;101139.75;;;3.38;64.27
10948;BME280;5526;42.070;24.752;2024-01-30T00:57:00;101140.56;;;3.38;64.36
10948;BME280;5526;42.070;24.752;2024-01-30T00:59:27;101138.81;;;3.39;64.20
10948;BME280;5526;42.070;24.752;2024-01-30T01:01:56;101138.47;;;3.42;64.09
10948;BME280;5526;42.070;24.752;2024-01-30T01:04:23;101137.97;;;3.38;64.14
10948;BME280;5526;42.070;24.752;2024-01-30T01:06:50;101136.38;;;3.45;64.30
10948;BME280;5526;42.070;24.752;2024-01-30T01:09:17;101123.38;;;3.45;63.68
10948;BME280;5526;42.070;24.752;2024-01-30T01:11:44;101131.81;;;3.47;63.93
10948;BME280;5526;42.070;24.752;2024-01-30T01:14:11;101136.25;;;3.47;64.03
10948;BME280;5526;42.070;24.752;2024-01-30T01:16:38;101132.63;;;3.40;64.16
10948;BME280;5526;42.070;24.752;2024-01-30T01:19:07;101131.94;;;3.38;64.23
10948;BME280;5526;42.070;24.752;2024-01-30T01:21:34;101132.56;;;3.32;63.88
10948;BME280;5526;42.070;24.752;2024-01-30T01:24:01;101126.06;;;3.28;63.97
10948;BME280;5526;42.070;24.752;2024-01-30T01:26:28;101119.38;;;3.25;64.18
10948;BME280;5526;42.070;24.752;2024-01-30T01:28:59;101124.72;;;3.24;64.14
10948;BME280;5526;42.070;24.752;2024-01-30T01:31:26;101113.28;;;3.17;64.47
10948;BME280;5526;42.070;24.752;2024-01-30T01:33:55;101117.22;;;3.21;64.47
10948;BME280;5526;42.070;24.752;2024-01-30T01:36:23;101116.78;;;3.25;64.86
10948;BME280;5526;42.070;24.752;2024-01-30T01:38:50;101106.81;;;3.21;64.88
10948;BME280;5526;42.070;24.752;2024-01-30T01:41:17;101120.00;;;3.27;65.07
10948;BME280;5526;42.070;24.752;2024-01-30T01:43:44;101117.25;;;3.29;65.48
10948;BME280;5526;42.070;24.752;2024-01-30T01:46:12;101106.69;;;3.30;64.81
10948;BME280;5526;42.070;24.752;2024-01-30T01:48:39;101089.06;;;3.16;64.84
10948;BME280;5526;42.070;24.752;2024-01-30T01:51:08;101108.44;;;3.22;65.36
10948;BME280;5526;42.070;24.752;2024-01-30T01:53:37;101102.59;;;3.20;64.94
10948;BME280;5526;42.070;24.752;2024-01-30T01:56:06;101108.53;;;3.12;65.36
10948;BME280;5526;42.070;24.752;2024-01-30T01:58:33;101111.97;;;3.13;64.95
10948;BME280;5526;42.070;24.752;2024-01-30T02:01:00;101111.16;;;2.87;65.35
10948;BME280;5526;42.070;24.752;2024-01-30T02:03:29;101115.13;;;2.56;66.39
10948;BME280;5526;42.070;24.752;2024-01-30T02:05:57;101117.50;;;2.67;66.68
10948;BME280;5526;42.070;24.752;2024-01-30T02:08:24;101109.13;;;2.73;66.10
10948;BME280;5526;42.070;24.752;2024-01-30T02:10:52;101109.06;;;2.65;65.79
10948;BME280;5526;42.070;24.752;2024-01-30T02:13:21;101110.53;;;2.67;65.91
10948;BME280;5526;42.070;24.752;2024-01-30T02:15:49;101125.84;;;2.35;67.12
10948;BME280;5526;42.070;24.752;2024-01-30T02:18:18;101116.47;;;2.25;67.20
10948;BME280;5526;42.070;24.752;2024-01-30T02:20:46;101114.94;;;2.32;67.18
10948;BME280;5526;42.070;24.752;2024-01-30T02:23:15;101119.47;;;2.12;67.69
10948;BME280;5526;42.070;24.752;2024-01-30T02:25:42;101114.19;;;2.04;68.16
10948;BME280;5526;42.070;24.752;2024-01-30T02:28:10;101119.59;;;2.11;67.81
10948;BME280;5526;42.070;24.752;2024-01-30T02:30:38;101118.34;;;1.70;69.15
10948;BME280;5526;42.070;24.752;2024-01-30T02:33:06;101125.13;;;1.54;70.23
10948;BME280;5526;42.070;24.752;2024-01-30T02:35:33;101129.78;;;1.50;70.36
10948;BME280;5526;42.070;24.752;2024-01-30T02:38:00;101125.50;;;1.32;71.01
10948;BME280;5526;42.070;24.752;2024-01-30T02:40:29;101136.91;;;1.39;71.30
10948;BME280;5526;42.070;24.752;2024-01-30T02:42:58;101128.84;;;1.42;71.08
10948;BME280;5526;42.070;24.752;2024-01-30T02:45:26;101132.13;;;1.44;71.32
10948;BME280;5526;42.070;24.752;2024-01-30T02:47:53;101123.19;;;1.29;71.96
10948;BME280;5526;42.070;24.752;2024-01-30T02:50:20;101132.72;;;1.28;71.87
10948;BME280;5526;42.070;24.752;2024-01-30T02:52:47;101137.41;;;1.25;72.21
10948;BME280;5526;42.070;24.752;2024-01-30T02:55:14;101134.09;;;1.23;72.81
10948;BME280;5526;42.070;24.752;2024-01-30T02:57:45;101131.41;;;1.15;73.20
10948;BME280;5526;42.070;24.752;2024-01-30T03:00:13;101136.09;;;1.02;74.30
10948;BME280;5526;42.070;24.752;2024-01-30T03:02:40;101139.78;;;0.90;75.15
10948;BME280;5526;42.070;24.752;2024-01-30T03:05:08;101138.69;;;1.02;75.62
10948;BME280;5526;42.070;24.752;2024-01-30T03:07:35;101142.75;;;1.04;74.91
10948;BME280;5526;42.070;24.752;2024-01-30T03:10:04;101141.44;;;0.81;76.69
10948;BME280;5526;42.070;24.752;2024-01-30T03:12:30;101151.94;;;0.89;76.79
10948;BME280;5526;42.070;24.752;2024-01-30T03:14:59;101154.91;;;1.04;75.86
10948;BME280;5526;42.070;24.752;2024-01-30T03:17:26;101157.13;;;0.80;76.96
10948;BME280;5526;42.070;24.752;2024-01-30T03:19:53;101153.19;;;0.66;77.82
10948;BME280;5526;42.070;24.752;2024-01-30T03:22:21;101157.97;;;0.71;78.00
10948;BME280;5526;42.070;24.752;2024-01-30T03:24:48;101145.84;;;0.52;79.94
10948;BME280;5526;42.070;24.752;2024-01-30T03:27:15;101149.53;;;0.59;80.33
10948;BME280;5526;42.070;24.752;2024-01-30T03:29:42;101138.34;;;0.49;81.71
10948;BME280;5526;42.070;24.752;2024-01-30T03:32:11;101031.38;;;-0.09;80.94
10948;BME280;5526;42.070;24.752;2024-01-30T03:34:38;101125.78;;;0.54;80.64
10948;BME280;5526;42.070;24.752;2024-01-30T03:37:05;101141.59;;;0.61;81.60
10948;BME280;5526;42.070;24.752;2024-01-30T03:39:32;101144.16;;;0.80;81.30
10948;BME280;5526;42.070;24.752;2024-01-30T03:41:59;101151.13;;;0.89;80.70
10948;BME280;5526;42.070;24.752;2024-01-30T03:44:26;101131.78;;;0.64;81.45
10948;BME280;5526;42.070;24.752;2024-01-30T03:46:53;101147.72;;;0.60;83.42
10948;BME280;5526;42.070;24.752;2024-01-30T03:49:22;101139.97;;;0.60;83.05
10948;BME280;5526;42.070;24.752;2024-01-30T03:51:49;101140.78;;;0.70;82.81
10948;BME280;5526;42.070;24.752;2024-01-30T03:54:16;101133.91;;;0.88;81.92
10948;BME280;5526;42.070;24.752;2024-01-30T03:56:43;101138.41;;;1.05;80.89
10948;BME280;5526;42.070;24.752;2024-01-30T03:59:10;101135.06;;;1.22;80.59
10948;BME280;5526;42.070;24.752;2024-01-30T04:01:38;101137.91;;;1.28;79.90
10948;BME280;5526;42.070;24.752;2024-01-30T04:04:05;101143.81;;;1.21;80.25
10948;BME280;5526;42.070;24.752;2024-01-30T04:06:33;101140.25;;;1.22;79.55
10948;BME280;5526;42.070;24.752;2024-01-30T04:09:00;101138.25;;;1.16;79.58
10948;BME280;5526;42.070;24.752;2024-01-30T04:11:29;101139.44;;;1.21;79.97
10948;BME280;5526;42.070;24.752;2024-01-30T04:13:56;101151.56;;;1.30;79.12
10948;BME280;5526;42.070;24.752;2024-01-30T04:16:23;101147.63;;;1.26;79.37
10948;BME280;5526;42.070;24.752;2024-01-30T04:18:51;101135.22;;;1.20;79.39
10948;BME280;5526;42.070;24.752;2024-01-30T04:21:20;101146.13;;;1.24;78.99
10948;BME280;5526;42.070;24.752;2024-01-30T04:23:48;101145.00;;;1.36;79.23
10948;BME280;5526;42.070;24.752;2024-01-30T04:26:15;101141.16;;;1.40;78.60
10948;BME280;5526;42.070;24.752;2024-01-30T04:28:44;101130.09;;;1.38;78.46
10948;BME280;5526;42.070;24.752;2024-01-30T04:31:12;101140.94;;;1.24;79.09
10948;BME280;5526;42.070;24.752;2024-01-30T04:33:39;101137.41;;;1.25;79.36
10948;BME280;5526;42.070;24.752;2024-01-30T04:36:08;101144.41;;;1.42;78.81
10948;BME280;5526;42.070;24.752;2024-01-30T04:38:37;101142.31;;;1.28;79.39
10948;BME280;5526;42.070;24.752;2024-01-30T04:41:05;101145.03;;;1.26;79.14
10948;BME280;5526;42.070;24.752;2024-01-30T04:43:32;101153.22;;;1.22;79.03
10948;BME280;5526;42.070;24.752;2024-01-30T04:45:59;101152.41;;;1.21;79.39
10948;BME280;5526;42.070;24.752;2024-01-30T04:48:27;101152.69;;;1.28;79.14
10948;BME280;5526;42.070;24.752;2024-01-30T04:50:54;101162.78;;;1.21;79.57
10948;BME280;5526;42.070;24.752;2024-01-30T04:53:21;101164.06;;;1.08;80.02
10948;BME280;5526;42.070;24.752;2024-01-30T04:55:48;101165.56;;;1.10;80.33
10948;BME280;5526;42.070;24.752;2024-01-30T04:58:16;101164.00;;;1.17;79.83
10948;BME280;5526;42.070;24.752;2024-01-30T05:00:43;101165.50;;;1.29;79.30
10948;BME280;5526;42.070;24.752;2024-01-30T05:03:11;101175.44;;;1.34;79.09
10948;BME280;5526;42.070;24.752;2024-01-30T05:05:38;101166.66;;;1.08;79.95
10948;BME280;5526;42.070;24.752;2024-01-30T05:08:06;101167.19;;;1.02;80.78
10948;BME280;5526;42.070;24.752;2024-01-30T05:10:33;101167.16;;;1.21;79.94
10948;BME280;5526;42.070;24.752;2024-01-30T05:13:00;101164.41;;;1.32;79.03
10948;BME280;5526;42.070;24.752;2024-01-30T05:15:28;101169.16;;;1.36;79.41
10948;BME280;5526;42.070;24.752;2024-01-30T05:17:55;101172.69;;;1.45;78.90
10948;BME280;5526;42.070;24.752;2024-01-30T05:20:22;101170.13;;;1.35;78.79
10948;BME280;5526;42.070;24.752;2024-01-30T05:22:49;101167.94;;;1.31;79.26
10948;BME280;5526;42.070;24.752;2024-01-30T05:25:16;101177.25;;;1.24;79.90
10948;BME280;5526;42.070;24.752;2024-01-30T05:27:43;101177.97;;;1.07;81.08
10948;BME280;5526;42.070;24.752;2024-01-30T05:30:11;101183.41;;;1.13;80.46
10948;BME280;5526;42.070;24.752;2024-01-30T05:32:39;101182.00;;;1.28;80.59
10948;BME280;5526;42.070;24.752;2024-01-30T05:35:07;101182.69;;;1.30;80.17
10948;BME280;5526;42.070;24.752;2024-01-30T05:37:34;101184.97;;;1.43;79.33
10948;BME280;5526;42.070;24.752;2024-01-30T05:40:01;101177.69;;;1.56;79.06
10948;BME280;5526;42.070;24.752;2024-01-30T05:42:30;101181.38;;;1.63;79.47
10948;BME280;5526;42.070;24.752;2024-01-30T05:44:57;101167.75;;;1.51;79.92
10948;BME280;5526;42.070;24.752;2024-01-30T05:47:24;101183.66;;;1.66;79.64
10948;BME280;5526;42.070;24.752;2024-01-30T05:49:52;101183.84;;;1.82;79.29
10948;BME280;5526;42.070;24.752;2024-01-30T05:52:19;101179.16;;;1.95;78.76
10948;BME280;5526;42.070;24.752;2024-01-30T05:54:46;101180.22;;;2.02;78.32
10948;BME280;5526;42.070;24.752;2024-01-30T05:57:13;101177.16;;;2.06;77.03
10948;BME280;5526;42.070;24.752;2024-01-30T05:59:40;101178.75;;;2.17;77.05
10948;BME280;5526;42.070;24.752;2024-01-30T06:02:07;101174.47;;;2.25;77.08
10948;BME280;5526;42.070;24.752;2024-01-30T06:04:34;101173.41;;;2.36;76.62
10948;BME280;5526;42.070;24.752;2024-01-30T06:07:03;101179.09;;;2.49;76.30
10948;BME280;5526;42.070;24.752;2024-01-30T06:09:31;101175.31;;;2.61;75.92
10948;BME280;5526;42.070;24.752;2024-01-30T06:11:58;101177.97;;;2.69;76.18
10948;BME280;5526;42.070;24.752;2024-01-30T06:14:25;101178.78;;;2.69;75.58
10948;BME280;5526;42.070;24.752;2024-01-30T06:16:52;101183.38;;;2.40;76.65
10948;BME280;5526;42.070;24.752;2024-01-30T06:19:20;101187.22;;;2.19;77.31
10948;BME280;5526;42.070;24.752;2024-01-30T06:21:47;101186.09;;;2.21;77.06
10948;BME280;5526;42.070;24.752;2024-01-30T06:24:15;101186.94;;;2.22;77.26
10948;BME280;5526;42.070;24.752;2024-01-30T06:26:42;101182.69;;;2.21;77.43
10948;BME280;5526;42.070;24.752;2024-01-30T06:29:09;101182.09;;;2.09;77.50
10948;BME280;5526;42.070;24.752;2024-01-30T06:31:40;101178.31;;;2.21;77.09
10948;BME280;5526;42.070;24.752;2024-01-30T06:34:08;101174.16;;;2.11;77.39
10948;BME280;5526;42.070;24.752;2024-01-30T06:36:35;101189.81;;;2.19;77.45
10948;BME280;5526;42.070;24.752;2024-01-30T06:39:03;101181.56;;;2.06;77.45
10948;BME280;5526;42.070;24.752;2024-01-30T06:41:31;101183.06;;;2.08;77.24
10948;BME280;5526;42.070;24.752;2024-01-30T06:43:59;101190.28;;;2.05;77.31
10948;BME280;5526;42.070;24.752;2024-01-30T06:46:26;101189.44;;;2.14;78.01
10948;BME280;5526;42.070;24.752;2024-01-30T06:48:53;101190.06;;;1.98;79.08
10948;BME280;5526;42.070;24.752;2024-01-30T06:51:20;101196.38;;;1.96;78.74
10948;BME280;5526;42.070;24.752;2024-01-30T06:53:47;101194.38;;;2.07;79.34
10948;BME280;5526;42.070;24.752;2024-01-30T06:56:14;101196.38;;;1.96;79.94
10948;BME280;5526;42.070;24.752;2024-01-30T06:58:43;101139.63;;;1.47;81.03
10948;BME280;5526;42.070;24.752;2024-01-30T07:01:10;101201.22;;;1.81;81.08
10948;BME280;5526;42.070;24.752;2024-01-30T07:03:37;101203.50;;;1.57;83.32
10948;BME280;5526;42.070;24.752;2024-01-30T07:06:04;101196.78;;;1.64;84.05
10948;BME280;5526;42.070;24.752;2024-01-30T07:08:32;101199.28;;;1.47;84.95
10948;BME280;5526;42.070;24.752;2024-01-30T07:10:59;101194.09;;;1.47;85.52
10948;BME280;5526;42.070;24.752;2024-01-30T07:13:27;101188.75;;;1.58;85.15
10948;BME280;5526;42.070;24.752;2024-01-30T07:15:56;101196.59;;;1.75;83.74
10948;BME280;5526;42.070;24.752;2024-01-30T07:18:23;101193.94;;;1.85;83.09
10948;BME280;5526;42.070;24.752;2024-01-30T07:20:50;101195.25;;;1.98;82.22
10948;BME280;5526;42.070;24.752;2024-01-30T07:23:17;101187.13;;;2.11;80.82
10948;BME280;5526;42.070;24.752;2024-01-30T07:25:44;101199.38;;;2.18;79.62
10948;BME280;5526;42.070;24.752;2024-01-30T07:28:11;101195.38;;;2.24;79.84
10948;BME280;5526;42.070;24.752;2024-01-30T07:30:39;101195.47;;;2.32;78.69
10948;BME280;5526;42.070;24.752;2024-01-30T07:33:07;101202.47;;;2.31;78.61
10948;BME280;5526;42.070;24.752;2024-01-30T07:35:35;101205.84;;;2.32;79.45
10948;BME280;5526;42.070;24.752;2024-01-30T07:38:02;101207.94;;;2.28;79.71
10948;BME280;5526;42.070;24.752;2024-01-30T07:40:29;101215.41;;;2.14;81.98
10948;BME280;5526;42.070;24.752;2024-01-30T07:42:57;101207.88;;;1.93;83.08
10948;BME280;5526;42.070;24.752;2024-01-30T07:45:24;101205.97;;;1.86;85.28
10948;BME280;5526;42.070;24.752;2024-01-30T07:47:53;101207.91;;;1.84;85.01
10948;BME280;5526;42.070;24.752;2024-01-30T07:50:21;101210.41;;;1.76;85.79
10948;BME280;5526;42.070;24.752;2024-01-30T07:52:48;101206.84;;;1.77;86.95
10948;BME280;5526;42.070;24.752;2024-01-30T07:55:20;101206.28;;;1.83;86.93
10948;BME280;5526;42.070;24.752;2024-01-30T07:57:50;101213.38;;;2.08;86.14
10948;BME280;5526;42.070;24.752;2024-01-30T08:00:18;101212.13;;;2.12;86.11
10948;BME280;5526;42.070;24.752;2024-01-30T08:02:45;101206.94;;;2.12;85.93
10948;BME280;5526;42.070;24.752;2024-01-30T08:05:12;101194.81;;;2.30;84.52
10948;BME280;5526;42.070;24.752;2024-01-30T08:07:42;101202.41;;;2.41;84.49
10948;BME280;5526;42.070;24.752;2024-01-30T08:10:11;101203.91;;;2.61;83.60
10948;BME280;5526;42.070;24.752;2024-01-30T08:12:38;101206.94;;;2.56;82.54
10948;BME280;5526;42.070;24.752;2024-01-30T08:15:06;101209.75;;;2.63;81.58
10948;BME280;5526;42.070;24.752;2024-01-30T08:17:33;101206.94;;;2.56;81.38
10948;BME280;5526;42.070;24.752;2024-01-30T08:20:01;101199.41;;;2.88;80.52
10948;BME280;5526;42.070;24.752;2024-01-30T08:22:30;101200.75;;;2.92;79.73
10948;BME280;5526;42.070;24.752;2024-01-30T08:24:58;101204.31;;;2.91;78.93
10948;BME280;5526;42.070;24.752;2024-01-30T08:27:25;101200.31;;;2.97;78.83
10948;BME280;5526;42.070;24.752;2024-01-30T08:29:52;101203.16;;;3.11;78.31
10948;BME280;5526;42.070;24.752;2024-01-30T08:32:20;101193.13;;;3.16;78.11
10948;BME280;5526;42.070;24.752;2024-01-30T08:34:47;101198.78;;;3.12;77.73
10948;BME280;5526;42.070;24.752;2024-01-30T08:37:14;101199.38;;;3.06;77.20
10948;BME280;5526;42.070;24.752;2024-01-30T08:39:42;101200.78;;;3.18;77.90
10948;BME280;5526;42.070;24.752;2024-01-30T08:42:10;101196.56;;;3.42;76.83
10948;BME280;5526;42.070;24.752;2024-01-30T08:44:38;101198.09;;;3.61;76.08
10948;BME280;5526;42.070;24.752;2024-01-30T08:47:05;101194.91;;;3.67;75.94
10948;BME280;5526;42.070;24.752;2024-01-30T08:49:32;101192.88;;;3.53;74.80
10948;BME280;5526;42.070;24.752;2024-01-30T08:51:59;101196.00;;;4.63;70.88
10948;BME280;5526;42.070;24.752;2024-01-30T08:54:26;101190.97;;;3.96;72.92
10948;BME280;5526;42.070;24.752;2024-01-30T08:56:53;101195.44;;;3.78;73.72
10948;BME280;5526;42.070;24.752;2024-01-30T08:59:23;101203.63;;;3.58;73.79
10948;BME280;5526;42.070;24.752;2024-01-30T09:01:50;101201.31;;;3.47;73.88
10948;BME280;5526;42.070;24.752;2024-01-30T09:04:20;101205.78;;;3.62;73.00
10948;BME280;5526;42.070;24.752;2024-01-30T09:06:48;101207.75;;;3.35;72.54
10948;BME280;5526;42.070;24.752;2024-01-30T09:09:15;101200.59;;;3.37;73.26
10948;BME280;5526;42.070;24.752;2024-01-30T09:11:43;101201.53;;;3.61;73.06
10948;BME280;5526;42.070;24.752;2024-01-30T09:14:10;101203.28;;;3.53;72.34
10948;BME280;5526;42.070;24.752;2024-01-30T09:16:39;101204.78;;;3.63;71.27
10948;BME280;5526;42.070;24.752;2024-01-30T09:19:06;101185.63;;;3.64;70.87
10948;BME280;5526;42.070;24.752;2024-01-30T09:21:33;101200.44;;;4.05;68.84
10948;BME280;5526;42.070;24.752;2024-01-30T09:24:02;101198.25;;;3.93;69.47
10948;BME280;5526;42.070;24.752;2024-01-30T09:26:29;101183.53;;;3.76;68.80
10948;BME280;5526;42.070;24.752;2024-01-30T09:28:56;101194.97;;;3.83;68.81
10948;BME280;5526;42.070;24.752;2024-01-30T09:31:24;101189.66;;;4.74;65.98
10948;BME280;5526;42.070;24.752;2024-01-30T09:33:52;101187.03;;;4.50;67.08
10948;BME280;5526;42.070;24.752;2024-01-30T09:36:19;101193.00;;;3.85;65.78
10948;BME280;5526;42.070;24.752;2024-01-30T09:38:47;101183.31;;;4.03;66.92
10948;BME280;5526;42.070;24.752;2024-01-30T09:41:15;101179.75;;;4.04;65.99
10948;BME280;5526;42.070;24.752;2024-01-30T09:43:47;101174.47;;;3.88;65.92
10948;BME280;5526;42.070;24.752;2024-01-30T09:46:16;101163.63;;;4.00;66.53
10948;BME280;5526;42.070;24.752;2024-01-30T09:48:46;101173.31;;;4.40;64.35
10948;BME280;5526;42.070;24.752;2024-01-30T09:51:15;101171.53;;;4.40;64.02
10948;BME280;5526;42.070;24.752;2024-01-30T09:53:43;101155.03;;;4.16;64.26
10948;BME280;5526;42.070;24.752;2024-01-30T09:56:12;101157.50;;;4.33;64.03
10948;BME280;5526;42.070;24.752;2024-01-30T09:58:39;101166.63;;;4.29;63.77
10948;BME280;5526;42.070;24.752;2024-01-30T10:01:07;101170.38;;;4.35;63.49
10948;BME280;5526;42.070;24.752;2024-01-30T10:03:35;101151.34;;;4.50;63.62
10948;BME280;5526;42.070;24.752;2024-01-30T10:06:02;101153.13;;;4.74;62.23
10948;BME280;5526;42.070;24.752;2024-01-30T10:08:30;101156.22;;;4.69;61.56
10948;BME280;5526;42.070;24.752;2024-01-30T10:10:58;101155.44;;;4.77;60.91
10948;BME280;5526;42.070;24.752;2024-01-30T10:13:27;101165.84;;;4.93;60.51
10948;BME280;5526;42.070;24.752;2024-01-30T10:15:54;101159.66;;;5.02;59.03
10948;BME280;5526;42.070;24.752;2024-01-30T10:18:23;101154.94;;;5.06;56.84
10948;BME280;5526;42.070;24.752;2024-01-30T10:20:51;101152.50;;;4.96;57.19
10948;BME280;5526;42.070;24.752;2024-01-30T10:23:18;101156.69;;;5.21;57.02
10948;BME280;5526;42.070;24.752;2024-01-30T10:25:47;101151.38;;;5.53;56.41
10948;BME280;5526;42.070;24.752;2024-01-30T10:28:14;101148.69;;;5.69;55.38
10948;BME280;5526;42.070;24.752;2024-01-30T10:30:41;101155.53;;;5.86;55.09
10948;BME280;5526;42.070;24.752;2024-01-30T10:33:08;101151.06;;;5.48;55.34
10948;BME280;5526;42.070;24.752;2024-01-30T10:35:36;101157.16;;;5.87;55.00
10948;BME280;5526;42.070;24.752;2024-01-30T10:38:03;101138.91;;;6.10;53.81
10948;BME280;5526;42.070;24.752;2024-01-30T10:40:33;101153.22;;;5.91;54.38
10948;BME280;5526;42.070;24.752;2024-01-30T10:43:05;101146.53;;;6.19;54.29
10948;BME280;5526;42.070;24.752;2024-01-30T10:45:35;101146.88;;;6.16;51.33
10948;BME280;5526;42.070;24.752;2024-01-30T10:48:05;101138.00;;;6.48;53.41
10948;BME280;5526;42.070;24.752;2024-01-30T10:50:35;101138.28;;;6.53;53.05
10948;BME280;5526;42.070;24.752;2024-01-30T10:53:04;101140.88;;;6.98;51.88
10948;BME280;5526;42.070;24.752;2024-01-30T10:55:32;101132.53;;;6.94;51.42
10948;BME280;5526;42.070;24.752;2024-01-30T10:58:00;101144.06;;;6.71;51.74
10948;BME280;5526;42.070;24.752;2024-01-30T11:00:29;101139.28;;;6.74;50.96
10948;BME280;5526;42.070;24.752;2024-01-30T11:02:58;101140.59;;;6.93;50.68
10948;BME280;5526;42.070;24.752;2024-01-30T11:05:28;101135.75;;;7.19;50.25
10948;BME280;5526;42.070;24.752;2024-01-30T11:07:55;101132.88;;;7.14;49.48
10948;BME280;5526;42.070;24.752;2024-01-30T11:10:24;101115.16;;;7.16;50.62
10948;BME280;5526;42.070;24.752;2024-01-30T11:12:52;101128.63;;;8.21;46.50
10948;BME280;5526;42.070;24.752;2024-01-30T11:15:19;101117.28;;;7.85;47.04
10948;BME280;5526;42.070;24.752;2024-01-30T11:17:51;101097.38;;;7.90;47.86
10948;BME280;5526;42.070;24.752;2024-01-30T11:20:20;101106.41;;;8.02;48.07
10948;BME280;5526;42.070;24.752;2024-01-30T11:22:51;101108.06;;;7.89;47.66
10948;BME280;5526;42.070;24.752;2024-01-30T11:25:20;101103.78;;;8.02;47.96
10948;BME280;5526;42.070;24.752;2024-01-30T11:27:50;101099.81;;;7.42;47.55
10948;BME280;5526;42.070;24.752;2024-01-30T11:30:24;101087.03;;;6.81;48.23
10948;BME280;5526;42.070;24.752;2024-01-30T11:33:00;101084.78;;;6.78;48.88
10948;BME280;5526;42.070;24.752;2024-01-30T11:35:29;101093.25;;;6.80;49.56
10948;BME280;5526;42.070;24.752;2024-01-30T11:37:57;101086.72;;;7.27;49.66
10948;BME280;5526;42.070;24.752;2024-01-30T11:40:27;101093.22;;;7.31;48.76
10948;BME280;5526;42.070;24.752;2024-01-30T11:42:55;101092.88;;;7.34;48.25
10948;BME280;5526;42.070;24.752;2024-01-30T11:45:22;101086.25;;;7.24;48.78
10948;BME280;5526;42.070;24.752;2024-01-30T11:47:49;101090.28;;;6.83;49.85
10948;BME280;5526;42.070;24.752;2024-01-30T11:50:18;101087.06;;;6.95;49.38
10948;BME280;5526;42.070;24.752;2024-01-30T11:52:45;101081.28;;;7.43;47.59
10948;BME280;5526;42.070;24.752;2024-01-30T11:55:14;101083.38;;;7.19;47.98
10948;BME280;5526;42.070;24.752;2024-01-30T11:57:41;101080.13;;;7.46;48.75
10948;BME280;5526;42.070;24.752;2024-01-30T12:00:15;101081.31;;;7.29;47.04
10948;BME280;5526;42.070;24.752;2024-01-30T12:02:42;101069.56;;;7.25;48.00
10948;BME280;5526;42.070;24.752;2024-01-30T12:05:10;101065.41;;;7.01;48.80
10948;BME280;5526;42.070;24.752;2024-01-30T12:07:38;101056.53;;;7.02;47.91
10948;BME280;5526;42.070;24.752;2024-01-30T12:10:06;101062.44;;;7.04;48.28
10948;BME280;5526;42.070;24.752;2024-01-30T12:12:35;101060.06;;;7.09;48.26
10948;BME280;5526;42.070;24.752;2024-01-30T12:15:04;101054.56;;;7.33;47.81
10948;BME280;5526;42.070;24.752;2024-01-30T12:17:33;101054.56;;;7.33;46.81
10948;BME280;5526;42.070;24.752;2024-01-30T12:20:03;101038.06;;;7.68;47.40
10948;BME280;5526;42.070;24.752;2024-01-30T12:22:33;101040.47;;;8.05;46.54
10948;BME280;5526;42.070;24.752;2024-01-30T12:25:04;101028.81;;;8.29;45.64
10948;BME280;5526;42.070;24.752;2024-01-30T12:27:32;101025.69;;;8.19;45.18
10948;BME280;5526;42.070;24.752;2024-01-30T12:29:59;101018.63;;;8.68;44.36
10948;BME280;5526;42.070;24.752;2024-01-30T12:32:26;101013.63;;;8.45;44.97
10948;BME280;5526;42.070;24.752;2024-01-30T12:34:55;100997.72;;;8.26;45.28
10948;BME280;5526;42.070;24.752;2024-01-30T12:37:23;100999.53;;;8.25;44.75
10948;BME280;5526;42.070;24.752;2024-01-30T12:39:51;101009.03;;;8.54;45.10
10948;BME280;5526;42.070;24.752;2024-01-30T12:42:21;101019.94;;;8.78;43.87
10948;BME280;5526;42.070;24.752;2024-01-30T12:44:48;101016.34;;;8.93;44.37
10948;BME280;5526;42.070;24.752;2024-01-30T12:47:16;101005.84;;;8.93;44.61
10948;BME280;5526;42.070;24.752;2024-01-30T12:49:43;101018.47;;;8.76;44.68
10948;BME280;5526;42.070;24.752;2024-01-30T12:52:10;101011.97;;;8.72;44.12
10948;BME280;5526;42.070;24.752;2024-01-30T12:54:38;101018.50;;;8.48;45.19
10948;BME280;5526;42.070;24.752;2024-01-30T12:57:05;101012.38;;;8.69;44.50
10948;BME280;5526;42.070;24.752;2024-01-30T12:59:34;101012.22;;;8.49;44.41
10948;BME280;5526;42.070;24.752;2024-01-30T13:02:01;101007.63;;;8.30;45.26